createdAt,value
2018-11-25T00:01:21.848Z,22.70
2018-11-25T00:04:18.930Z,19.52
2018-11-25T00:07:15.950Z,20.27
2018-11-25T00:10:12.783Z,21.25
2018-11-25T00:13:09.832Z,21.65
2018-11-25T00:16:07.588Z,21.85
2018-11-25T00:19:04.512Z,12.65
2018-11-25T00:22:01.789Z,21.05
2018-11-25T00:24:59.168Z,22.67
2018-11-25T00:27:56.872Z,26.33
2018-11-25T00:30:46.095Z,23.73
2018-11-25T00:33:43.221Z,22.87
2018-11-25T00:36:39.957Z,19.67
2018-11-25T00:39:36.888Z,13.88
2018-11-25T00:42:33.599Z,14.18
2018-11-25T00:45:30.409Z,17.98
2018-11-25T00:48:31.021Z,23.45
2018-11-25T00:51:28.445Z,15.98
2018-11-25T00:54:25.374Z,24.82
2018-11-25T00:57:22.336Z,17.02
2018-11-25T01:00:19.160Z,10.30
2018-11-25T01:03:16.497Z,17.10
2018-11-25T01:06:13.441Z,22.48
2018-11-25T01:09:10.253Z,10.60
2018-11-25T01:12:08.879Z,14.45
2018-11-25T01:15:06.318Z,16.32
2018-11-25T01:18:03.141Z,21.20
2018-11-25T01:20:59.950Z,18.75
2018-11-25T01:23:56.708Z,10.80
2018-11-25T01:26:53.518Z,18.52
2018-11-25T01:29:50.975Z,15.78
2018-11-25T01:32:54.213Z,21.75
2018-11-25T01:35:51.035Z,9.55
2018-11-25T01:38:47.920Z,7.75
2018-11-25T01:41:44.792Z,9.33
2018-11-25T01:44:41.759Z,15.68
2018-11-25T01:47:38.596Z,8.90
2018-11-25T01:50:35.972Z,13.95
2018-11-25T01:53:34.130Z,12.47
2018-11-25T01:56:27.087Z,18.55
2018-11-25T01:59:24.059Z,8.45
2018-11-25T02:02:20.801Z,7.90
2018-11-25T02:05:18.669Z,12.85
2018-11-25T02:08:16.570Z,7.67
2018-11-25T02:11:13.754Z,16.87
2018-11-25T02:14:10.706Z,17.40
2018-11-25T02:17:07.583Z,15.70
2018-11-25T02:20:05.334Z,8.68
2018-11-25T02:23:02.538Z,16.85
2018-11-25T02:25:59.253Z,14.73
2018-11-25T02:28:57.015Z,17.55
2018-11-25T02:31:54.769Z,16.48
2018-11-25T02:34:51.717Z,6.83
2018-11-25T02:37:48.496Z,17.30
2018-11-25T02:40:53.791Z,16.73
2018-11-25T02:43:54.557Z,14.25
2018-11-25T02:46:47.630Z,15.13
2018-11-25T02:49:44.396Z,10.30
2018-11-25T02:52:41.384Z,6.35
2018-11-25T02:55:43.212Z,10.60
2018-11-25T02:58:40.089Z,16.12
2018-11-25T03:01:40.608Z,6.53
2018-11-25T03:04:37.453Z,12.45
2018-11-25T03:07:32.443Z,12.43
2018-11-25T03:10:29.241Z,15.80
2018-11-25T03:13:26.441Z,19.90
2018-11-25T03:16:26.302Z,20.32
2018-11-25T03:19:30.805Z,17.42
2018-11-25T03:22:27.541Z,7.83
2018-11-25T03:25:24.388Z,11.00
2018-11-25T03:28:21.160Z,15.65
2018-11-25T03:31:17.996Z,8.93
2018-11-25T03:34:14.688Z,6.47
2018-11-25T03:37:11.687Z,21.80
2018-11-25T03:40:09.241Z,11.88
2018-11-25T03:43:06.210Z,10.30
2018-11-25T03:46:02.918Z,10.08
2018-11-25T03:48:59.862Z,15.43
2018-11-25T03:51:56.667Z,11.10
2018-11-25T03:54:53.615Z,14.98
2018-11-25T03:57:54.124Z,13.28
2018-11-25T04:00:54.715Z,10.20
2018-11-25T04:03:51.746Z,15.75
2018-11-25T04:06:48.471Z,15.00
2018-11-25T04:09:45.324Z,7.20
2018-11-25T04:12:42.268Z,17.40
2018-11-25T04:15:39.799Z,23.18
2018-11-25T04:18:37.876Z,11.18
2018-11-25T04:21:35.251Z,9.25
2018-11-25T04:24:32.106Z,11.08
2018-11-25T04:27:29.787Z,8.25
2018-11-25T04:30:25.966Z,19.80
2018-11-25T04:33:22.902Z,12.68
2018-11-25T04:36:19.633Z,9.00
2018-11-25T04:39:28.000Z,7.30
2018-11-25T04:42:24.703Z,7.90
2018-11-25T04:45:21.671Z,9.90
2018-11-25T04:48:18.550Z,7.97
2018-11-25T04:51:15.340Z,14.55
2018-11-25T04:54:12.045Z,20.15
2018-11-25T04:57:09.128Z,10.40
2018-11-25T05:00:06.588Z,13.35
2018-11-25T05:03:07.091Z,21.55
2018-11-25T05:06:03.812Z,9.75
2018-11-25T05:09:00.616Z,9.85
2018-11-25T05:11:57.394Z,18.55
2018-11-25T05:14:54.190Z,14.85
2018-11-25T05:17:51.273Z,9.03
2018-11-25T05:20:51.110Z,14.68
2018-11-25T05:23:47.801Z,18.87
2018-11-25T05:26:44.885Z,19.50
2018-11-25T05:29:41.743Z,9.33
2018-11-25T05:32:38.509Z,15.68
2018-11-25T05:35:35.969Z,14.18
2018-11-25T05:38:32.949Z,10.48
2018-11-25T05:41:27.923Z,18.12
2018-11-25T05:44:24.739Z,11.20
2018-11-25T05:47:21.583Z,11.95
2018-11-25T05:50:18.494Z,7.37
2018-11-25T05:53:15.378Z,8.10
2018-11-25T05:56:16.193Z,14.40
2018-11-25T05:59:11.472Z,18.20
2018-11-25T06:02:08.224Z,20.15
2018-11-25T06:05:04.978Z,17.07
2018-11-25T06:08:01.786Z,9.08
2018-11-25T06:10:58.582Z,13.72
2018-11-25T06:13:47.730Z,9.93
2018-11-25T06:16:44.528Z,8.70
2018-11-25T06:19:41.426Z,7.85
2018-11-25T06:22:38.388Z,7.35
2018-11-25T06:25:36.788Z,19.27
2018-11-25T06:28:37.550Z,20.62
2018-11-25T06:31:35.128Z,10.23
2018-11-25T06:34:33.417Z,10.43
2018-11-25T06:37:30.468Z,14.10
2018-11-25T06:40:27.603Z,16.40
2018-11-25T06:43:24.589Z,9.50
2018-11-25T06:46:21.566Z,8.40
2018-11-25T06:49:18.437Z,10.75
2018-11-25T06:52:16.032Z,10.20
2018-11-25T06:55:13.051Z,17.55
2018-11-25T06:58:09.844Z,16.05
2018-11-25T07:01:06.832Z,7.55
2018-11-25T07:04:01.958Z,9.13
2018-11-25T07:07:02.550Z,10.43
2018-11-25T07:10:00.377Z,8.78
2018-11-25T07:12:57.646Z,8.18
2018-11-25T07:15:54.662Z,10.85
2018-11-25T07:18:51.521Z,12.15
2018-11-25T07:21:48.352Z,11.08
2018-11-25T07:24:45.301Z,9.30
2018-11-25T07:27:42.034Z,11.65
2018-11-25T07:30:53.336Z,10.95
2018-11-25T07:33:51.154Z,15.08
2018-11-25T07:36:48.150Z,16.32
2018-11-25T07:39:45.038Z,15.75
2018-11-25T07:42:42.710Z,9.30
2018-11-25T07:45:51.083Z,8.30
2018-11-25T07:48:47.938Z,8.05
2018-11-25T07:51:47.683Z,8.33
2018-11-25T07:54:44.474Z,10.08
2018-11-25T07:57:41.417Z,11.43
2018-11-25T08:00:52.853Z,8.48
2018-11-25T08:03:50.078Z,7.75
2018-11-25T08:06:48.073Z,11.40
2018-11-25T08:09:44.941Z,8.35
2018-11-25T08:12:41.901Z,9.25
2018-11-25T08:15:39.229Z,13.75
2018-11-25T08:18:37.256Z,6.20
2018-11-25T08:21:34.093Z,11.65
2018-11-25T08:24:30.997Z,8.68
2018-11-25T08:27:27.922Z,10.38
2018-11-25T08:30:24.835Z,9.60
2018-11-25T08:33:19.813Z,12.07
2018-11-25T08:36:16.575Z,10.38
2018-11-25T08:39:13.501Z,9.08
2018-11-25T08:42:11.367Z,9.93
2018-11-25T08:45:08.250Z,14.00
2018-11-25T08:48:05.007Z,8.20
2018-11-25T08:51:02.144Z,12.30
2018-11-25T08:53:58.915Z,9.70
2018-11-25T08:56:55.960Z,9.28
2018-11-25T08:59:57.381Z,8.53
2018-11-25T09:02:54.235Z,9.45
2018-11-25T09:05:52.171Z,6.05
2018-11-25T09:08:49.103Z,9.88
2018-11-25T09:11:45.968Z,7.10
2018-11-25T09:14:42.857Z,6.35
2018-11-25T09:17:40.752Z,7.37
2018-11-25T09:20:38.316Z,9.23
2018-11-25T09:23:35.308Z,9.03
2018-11-25T09:26:32.207Z,6.20
2018-11-25T09:29:29.200Z,9.63
2018-11-25T09:32:27.148Z,11.30
2018-11-25T09:35:24.248Z,9.75
2018-11-25T09:38:21.164Z,8.65
2018-11-25T09:41:18.193Z,8.08
2018-11-25T09:44:15.400Z,8.65
2018-11-25T09:47:12.276Z,8.48
2018-11-25T09:50:09.626Z,8.60
2018-11-25T09:52:59.195Z,10.78
2018-11-25T09:55:57.145Z,8.08
2018-11-25T09:58:54.070Z,8.35
2018-11-25T10:01:50.779Z,6.95
2018-11-25T10:04:48.676Z,7.80
2018-11-25T10:07:46.283Z,8.78
2018-11-25T10:10:43.887Z,8.40
2018-11-25T10:13:40.931Z,13.83
2018-11-25T10:16:37.857Z,6.60
2018-11-25T10:19:34.830Z,10.13
2018-11-25T10:22:31.875Z,9.05
2018-11-25T10:25:28.652Z,9.50
2018-11-25T10:28:27.061Z,8.05
2018-11-25T10:31:23.786Z,7.80
2018-11-25T10:34:17.798Z,11.75
2018-11-25T10:37:14.647Z,10.70
2018-11-25T10:40:11.537Z,10.68
2018-11-25T10:43:08.498Z,9.18
2018-11-25T10:46:05.240Z,10.40
2018-11-25T10:49:03.149Z,9.53
2018-11-25T10:52:00.308Z,9.08
2018-11-25T10:54:57.183Z,9.15
2018-11-25T10:57:53.991Z,14.18
2018-11-25T11:00:56.397Z,11.15
2018-11-25T11:03:55.124Z,10.48
2018-11-25T11:06:54.516Z,12.15
2018-11-25T11:09:52.289Z,7.62
2018-11-25T11:12:49.196Z,9.15
2018-11-25T11:15:46.074Z,11.50
2018-11-25T11:18:42.923Z,8.53
2018-11-25T11:21:39.687Z,15.08
2018-11-25T11:24:36.580Z,11.75
2018-11-25T11:27:31.756Z,14.38
2018-11-25T11:30:25.945Z,10.03
2018-11-25T11:33:22.873Z,26.40
2018-11-25T11:36:20.057Z,27.48
2018-11-25T11:39:20.589Z,21.10
2018-11-25T11:42:17.332Z,14.78
2018-11-25T11:45:14.953Z,11.50
2018-11-25T11:48:12.659Z,18.45
2018-11-25T11:51:09.382Z,13.95
2018-11-25T11:57:48.341Z,8.23
2018-11-25T12:00:56.528Z,32.65
2018-11-25T12:03:53.255Z,18.40
2018-11-25T12:06:53.834Z,15.28
2018-11-25T12:09:50.807Z,23.85
2018-11-25T12:12:47.878Z,17.48
2018-11-25T12:15:45.512Z,21.17
2018-11-25T12:18:42.289Z,17.62
2018-11-25T12:21:40.292Z,14.33
2018-11-25T12:24:37.262Z,15.00
2018-11-25T12:27:34.219Z,13.62
2018-11-25T12:30:29.330Z,17.02
2018-11-25T12:33:26.154Z,11.10
2018-11-25T12:36:22.914Z,12.58
2018-11-25T12:39:19.643Z,13.83
2018-11-25T12:42:17.698Z,11.65
2018-11-25T12:45:14.961Z,11.95
2018-11-25T12:48:11.745Z,9.80
2018-11-25T12:51:08.461Z,14.58
2018-11-25T12:54:05.768Z,15.23
2018-11-25T12:57:02.481Z,10.75
2018-11-25T12:59:59.660Z,15.15
2018-11-25T13:02:56.633Z,14.47
2018-11-25T13:05:56.506Z,12.20
2018-11-25T13:08:55.574Z,15.85
2018-11-25T13:11:52.648Z,15.58
2018-11-25T13:14:49.554Z,12.88
2018-11-25T13:17:44.568Z,10.08
2018-11-25T13:20:42.409Z,14.05
2018-11-25T13:23:43.216Z,10.10
2018-11-25T13:26:36.988Z,10.93
2018-11-25T13:29:33.936Z,12.58
2018-11-25T13:32:30.945Z,12.80
2018-11-25T13:35:28.732Z,10.75
2018-11-25T13:38:26.521Z,10.23
2018-11-25T13:41:21.794Z,9.88
2018-11-25T13:44:19.041Z,12.20
2018-11-25T13:47:16.079Z,10.98
2018-11-25T13:50:14.353Z,12.00
2018-11-25T13:53:10.847Z,11.15
2018-11-25T13:56:08.111Z,11.70
2018-11-25T13:59:05.429Z,10.30
2018-11-25T14:02:03.477Z,10.63
2018-11-25T14:05:00.515Z,10.32
2018-11-25T14:07:58.501Z,9.68
2018-11-25T14:10:56.252Z,11.73
2018-11-25T14:13:49.641Z,8.08
2018-11-25T14:16:47.508Z,10.08
2018-11-25T14:19:44.428Z,16.73
2018-11-25T14:22:41.786Z,13.62
2018-11-25T14:25:40.692Z,9.63
2018-11-25T14:28:37.937Z,12.10
2018-11-25T14:31:35.049Z,11.60
2018-11-25T14:34:32.235Z,11.83
2018-11-25T14:37:29.190Z,9.30
2018-11-25T14:40:26.122Z,8.00
2018-11-25T14:43:23.141Z,12.80
2018-11-25T14:46:20.197Z,10.35
2018-11-25T14:49:17.057Z,14.65
2018-11-25T14:52:14.055Z,10.78
2018-11-25T14:55:14.552Z,7.62
2018-11-25T14:58:12.419Z,9.10
2018-11-25T15:01:09.673Z,10.28
2018-11-25T15:04:07.003Z,6.90
2018-11-25T15:07:03.793Z,12.40
2018-11-25T15:10:00.531Z,11.18
2018-11-25T15:12:57.508Z,10.80
2018-11-25T15:15:54.284Z,10.28
2018-11-25T15:18:55.932Z,8.18
2018-11-25T15:21:53.402Z,11.12
2018-11-25T15:24:50.485Z,8.85
2018-11-25T15:27:47.882Z,8.85
2018-11-25T15:30:44.626Z,10.95
2018-11-25T15:33:41.547Z,8.88
2018-11-25T15:36:38.370Z,12.75
2018-11-25T15:39:28.769Z,9.05
2018-11-25T15:42:25.847Z,9.80
2018-11-25T15:45:23.526Z,10.98
2018-11-25T15:48:21.181Z,8.95
2018-11-25T15:51:18.683Z,8.60
2018-11-25T15:54:15.847Z,7.75
2018-11-25T15:57:12.944Z,7.97
2018-11-25T16:00:09.814Z,8.75
2018-11-25T16:03:06.807Z,8.75
2018-11-25T16:09:31.251Z,8.20
2018-11-25T16:12:28.360Z,9.60
2018-11-25T16:15:25.106Z,11.45
2018-11-25T16:18:20.836Z,7.67
2018-11-25T16:21:21.325Z,9.43
2018-11-25T16:24:20.289Z,10.38
2018-11-25T16:27:17.263Z,10.08
2018-11-25T16:30:14.516Z,10.13
2018-11-25T16:33:11.233Z,11.70
2018-11-25T16:36:08.007Z,10.20
2018-11-25T16:39:04.953Z,10.75
2018-11-25T16:42:02.906Z,10.58
2018-11-25T16:45:00.602Z,8.88
2018-11-25T16:47:58.920Z,12.58
2018-11-25T16:50:55.828Z,11.05
2018-11-25T16:53:52.728Z,14.47
2018-11-25T16:56:49.731Z,11.18
2018-11-25T16:59:46.810Z,10.80
2018-11-25T17:02:43.754Z,12.05
2018-11-25T17:05:44.268Z,13.43
2018-11-25T17:09:04.993Z,11.33
2018-11-25T17:12:01.990Z,9.48
2018-11-25T17:14:54.226Z,8.30
2018-11-25T17:17:50.947Z,10.40
2018-11-25T17:20:48.843Z,9.08
2018-11-25T17:23:45.503Z,11.28
2018-11-25T17:26:42.675Z,11.22
2018-11-25T17:29:39.540Z,9.93
2018-11-25T17:32:37.301Z,10.50
2018-11-25T17:35:35.570Z,8.33
2018-11-25T17:38:32.700Z,7.67
2018-11-25T17:41:25.760Z,10.63
2018-11-25T17:44:22.905Z,8.50
2018-11-25T17:47:20.908Z,12.35
2018-11-25T17:50:17.649Z,11.08
2018-11-25T17:53:20.663Z,9.38
2018-11-25T17:56:12.330Z,9.55
2018-11-25T17:59:09.200Z,9.80
2018-11-25T18:02:06.226Z,6.75
2018-11-25T18:05:04.323Z,8.35
2018-11-25T18:08:01.815Z,7.90
2018-11-25T18:10:58.748Z,14.23
2018-11-25T18:13:57.743Z,12.65
2018-11-25T18:16:54.937Z,10.85
2018-11-25T18:19:52.908Z,12.13
2018-11-25T18:22:51.028Z,12.20
2018-11-25T18:25:47.945Z,10.53
2018-11-25T18:28:45.449Z,15.08
2018-11-25T18:31:42.193Z,14.95
2018-11-25T18:34:39.228Z,15.72
2018-11-25T18:37:36.172Z,16.25
2018-11-25T18:40:32.594Z,17.80
2018-11-25T18:43:29.474Z,14.85
2018-11-25T18:46:26.245Z,13.38
2018-11-25T18:49:23.046Z,14.83
2018-11-25T18:52:19.720Z,13.32
2018-11-25T18:56:03.605Z,10.08
2018-11-25T18:59:00.525Z,13.10
2018-11-25T19:02:11.924Z,12.90
2018-11-25T19:05:08.855Z,11.60
2018-11-25T19:08:05.587Z,9.28
2018-11-25T19:10:55.054Z,9.25
2018-11-25T19:13:51.949Z,9.03
2018-11-25T19:16:49.375Z,8.45
2018-11-25T19:19:46.150Z,15.50
2018-11-25T19:22:43.082Z,10.70
2018-11-25T19:25:48.724Z,8.78
2018-11-25T19:28:45.668Z,18.15
2018-11-25T19:31:42.768Z,8.50
2018-11-25T19:34:40.561Z,7.80
2018-11-25T19:37:37.637Z,12.25
2018-11-25T19:40:49.171Z,7.55
2018-11-25T19:43:46.161Z,9.83
2018-11-25T19:46:42.986Z,9.60
2018-11-25T19:49:39.840Z,9.58
2018-11-25T19:52:36.941Z,9.05
2018-11-25T19:55:34.366Z,7.47
2018-11-25T19:58:31.132Z,10.00
2018-11-25T20:01:28.547Z,11.65
2018-11-25T20:04:25.498Z,6.33
2018-11-25T20:07:22.245Z,7.17
2018-11-25T20:10:19.272Z,9.10
2018-11-25T20:13:16.568Z,7.33
2018-11-25T20:16:18.097Z,7.42
2018-11-25T20:19:15.175Z,7.33
2018-11-25T20:22:13.897Z,6.10
2018-11-25T20:25:11.729Z,14.80
2018-11-25T20:28:20.630Z,7.28
2018-11-25T20:31:17.866Z,7.45
2018-11-25T20:34:16.781Z,9.50
2018-11-25T20:37:15.349Z,8.08
2018-11-25T20:40:12.704Z,8.78
2018-11-25T20:43:18.701Z,7.62
2018-11-25T20:46:17.973Z,8.88
2018-11-25T20:49:14.934Z,8.28
2018-11-25T20:52:13.836Z,7.90
2018-11-25T20:55:14.550Z,11.35
2018-11-25T20:58:11.574Z,9.85
2018-11-25T21:01:09.507Z,11.03
2018-11-25T21:04:04.527Z,11.03
2018-11-25T21:07:01.477Z,10.38
2018-11-25T21:09:59.393Z,10.03
2018-11-25T21:12:56.444Z,10.88
2018-11-25T21:15:53.469Z,11.90
2018-11-25T21:18:50.254Z,9.20
2018-11-25T21:21:47.110Z,13.95
2018-11-25T21:24:43.953Z,16.48
2018-11-25T21:27:40.798Z,13.30
2018-11-25T21:30:38.665Z,12.35
2018-11-25T21:33:36.403Z,14.60
2018-11-25T21:36:25.849Z,18.48
2018-11-25T21:39:22.867Z,17.05
2018-11-25T21:42:19.868Z,12.80
2018-11-25T21:45:17.113Z,22.85
2018-11-25T21:48:14.115Z,16.27
2018-11-25T21:51:10.926Z,20.82
2018-11-25T21:54:07.677Z,19.00
2018-11-25T21:57:04.467Z,25.08
2018-11-25T22:00:01.401Z,22.80
2018-11-25T22:02:58.124Z,17.25
2018-11-25T22:05:54.893Z,15.03
2018-11-25T22:08:51.713Z,25.40
2018-11-25T22:11:48.684Z,22.30
2018-11-25T22:14:45.450Z,34.43
2018-11-25T22:17:42.333Z,25.48
2018-11-25T22:20:39.572Z,22.00
2018-11-25T22:23:36.353Z,22.98
2018-11-25T22:26:35.533Z,22.27
2018-11-25T22:29:32.361Z,24.30
2018-11-25T22:32:29.367Z,34.63
2018-11-25T22:35:26.296Z,24.67
2018-11-25T22:38:23.069Z,21.45
2018-11-25T22:41:20.198Z,31.12
2018-11-25T22:44:17.141Z,36.10
2018-11-25T22:47:13.900Z,26.00
2018-11-25T22:50:11.464Z,23.00
2018-11-25T22:53:09.481Z,32.53
2018-11-25T22:56:06.386Z,32.20
2018-11-25T22:59:03.685Z,26.93
2018-11-25T23:02:01.106Z,36.10
2018-11-25T23:05:08.109Z,32.08
2018-11-25T23:08:06.184Z,30.50
2018-11-25T23:11:03.689Z,35.35
2018-11-25T23:14:00.639Z,33.00
2018-11-25T23:16:58.419Z,41.95
2018-11-25T23:19:55.401Z,29.23
2018-11-25T23:23:00.073Z,39.73
2018-11-25T23:25:57.581Z,35.45
2018-11-25T23:28:58.062Z,32.30
2018-11-25T23:35:40.045Z,41.68
2018-11-25T23:38:36.823Z,29.63
2018-11-25T23:41:40.251Z,31.97
2018-11-25T23:44:37.012Z,26.93
2018-11-25T23:47:34.966Z,31.95
2018-11-25T23:50:30.447Z,29.10
2018-11-25T23:53:27.999Z,28.67
2018-11-25T23:56:25.130Z,33.98
2018-11-25T23:59:21.885Z,29.82
